sensor_id;sensor_type;location;lat;lon;timestamp;temperature;humidity
27306;DHT22;14792;50.886;6.468;2023-02-01T00:00:12;5.70;99.90
27306;DHT22;14792;50.886;6.468;2023-02-01T00:03:14;5.70;99.90
27306;DHT22;14792;50.886;6.468;2023-02-01T00:06:15;5.70;99.90
27306;DHT22;14792;50.886;6.468;2023-02-01T00:09:17;5.70;99.90
27306;DHT22;14792;50.886;6.468;2023-02-01T00:12:18;5.60;99.90
27306;DHT22;14792;50.886;6.468;2023-02-01T00:15:20;5.60;99.90
27306;DHT22;14792;50.886;6.468;2023-02-01T00:18:22;5.60;99.90
27306;DHT22;14792;50.886;6.468;2023-02-01T00:21:23;5.60;99.90
27306;DHT22;14792;50.886;6.468;2023-02-01T00:24:25;5.60;99.90
27306;DHT22;14792;50.886;6.468;2023-02-01T00:27:26;5.60;99.90
27306;DHT22;14792;50.886;6.468;2023-02-01T00:30:29;5.60;99.90
27306;DHT22;14792;50.886;6.468;2023-02-01T00:33:31;5.60;99.90
27306;DHT22;14792;50.886;6.468;2023-02-01T00:36:32;5.70;99.90
27306;DHT22;14792;50.886;6.468;2023-02-01T00:39:33;5.70;99.90
27306;DHT22;14792;50.886;6.468;2023-02-01T00:42:35;5.70;99.90
27306;DHT22;14792;50.886;6.468;2023-02-01T00:45:36;5.70;99.90
27306;DHT22;14792;50.886;6.468;2023-02-01T00:48:38;5.70;99.90
27306;DHT22;14792;50.886;6.468;2023-02-01T00:51:40;5.70;99.90
27306;DHT22;14792;50.886;6.468;2023-02-01T00:54:41;5.70;99.90
27306;DHT22;14792;50.886;6.468;2023-02-01T00:57:43;5.70;99.90
27306;DHT22;14792;50.886;6.468;2023-02-01T01:00:44;5.80;99.90
27306;DHT22;14792;50.886;6.468;2023-02-01T01:03:47;5.70;99.90
27306;DHT22;14792;50.886;6.468;2023-02-01T01:06:48;5.80;99.90
27306;DHT22;14792;50.886;6.468;2023-02-01T01:09:49;5.80;99.90
27306;DHT22;14792;50.886;6.468;2023-02-01T01:12:51;5.80;99.90
27306;DHT22;14792;50.886;6.468;2023-02-01T01:15:52;5.80;99.90
27306;DHT22;14792;50.886;6.468;2023-02-01T01:18:54;5.80;99.90
27306;DHT22;14792;50.886;6.468;2023-02-01T01:21:55;5.80;99.90
27306;DHT22;14792;50.886;6.468;2023-02-01T01:24:57;5.80;99.90
27306;DHT22;14792;50.886;6.468;2023-02-01T01:27:59;5.80;99.90
27306;DHT22;14792;50.886;6.468;2023-02-01T01:31:00;5.80;99.90
27306;DHT22;14792;50.886;6.468;2023-02-01T01:34:02;5.80;99.90
27306;DHT22;14792;50.886;6.468;2023-02-01T01:37:04;5.80;99.90
27306;DHT22;14792;50.886;6.468;2023-02-01T01:40:06;5.80;99.90
27306;DHT22;14792;50.886;6.468;2023-02-01T01:43:14;5.80;99.90
27306;DHT22;14792;50.886;6.468;2023-02-01T01:46:18;5.80;99.90
27306;DHT22;14792;50.886;6.468;2023-02-01T01:49:20;5.80;99.90
27306;DHT22;14792;50.886;6.468;2023-02-01T01:52:20;5.90;99.90
27306;DHT22;14792;50.886;6.468;2023-02-01T01:55:22;5.90;99.90
27306;DHT22;14792;50.886;6.468;2023-02-01T01:58:24;5.90;99.90
27306;DHT22;14792;50.886;6.468;2023-02-01T02:01:25;5.90;99.90
27306;DHT22;14792;50.886;6.468;2023-02-01T02:04:27;6.00;99.90
27306;DHT22;14792;50.886;6.468;2023-02-01T02:07:30;6.00;99.90
27306;DHT22;14792;50.886;6.468;2023-02-01T02:10:31;6.00;99.90
27306;DHT22;14792;50.886;6.468;2023-02-01T02:13:51;6.00;99.90
27306;DHT22;14792;50.886;6.468;2023-02-01T02:23:37;6.00;99.90
27306;DHT22;14792;50.886;6.468;2023-02-01T02:26:39;6.00;99.90
27306;DHT22;14792;50.886;6.468;2023-02-01T02:36:43;6.00;99.90
27306;DHT22;14792;50.886;6.468;2023-02-01T02:40:03;6.00;99.90
27306;DHT22;14792;50.886;6.468;2023-02-01T02:43:10;6.00;99.90
27306;DHT22;14792;50.886;6.468;2023-02-01T02:46:41;6.00;99.90
27306;DHT22;14792;50.886;6.468;2023-02-01T02:56:57;6.00;99.90
27306;DHT22;14792;50.886;6.468;2023-02-01T03:00:21;6.00;99.90
27306;DHT22;14792;50.886;6.468;2023-02-01T03:03:37;6.00;99.90
27306;DHT22;14792;50.886;6.468;2023-02-01T03:06:56;6.00;99.90
27306;DHT22;14792;50.886;6.468;2023-02-01T03:09:57;6.00;99.90
27306;DHT22;14792;50.886;6.468;2023-02-01T03:13:03;6.10;99.90
27306;DHT22;14792;50.886;6.468;2023-02-01T03:16:13;6.10;99.90
27306;DHT22;14792;50.886;6.468;2023-02-01T03:19:21;6.20;99.90
27306;DHT22;14792;50.886;6.468;2023-02-01T03:22:22;6.20;99.90
27306;DHT22;14792;50.886;6.468;2023-02-01T03:25:25;6.20;99.90
27306;DHT22;14792;50.886;6.468;2023-02-01T03:28:24;6.10;99.90
27306;DHT22;14792;50.886;6.468;2023-02-01T03:31:26;6.10;99.90
27306;DHT22;14792;50.886;6.468;2023-02-01T03:34:28;6.00;99.90
27306;DHT22;14792;50.886;6.468;2023-02-01T03:37:29;6.00;99.90
27306;DHT22;14792;50.886;6.468;2023-02-01T03:40:30;6.00;99.90
27306;DHT22;14792;50.886;6.468;2023-02-01T03:43:33;5.90;99.90
27306;DHT22;14792;50.886;6.468;2023-02-01T03:49:44;5.90;99.90
27306;DHT22;14792;50.886;6.468;2023-02-01T03:52:48;5.90;99.90
27306;DHT22;14792;50.886;6.468;2023-02-01T03:55:49;5.80;99.90
27306;DHT22;14792;50.886;6.468;2023-02-01T03:58:50;5.80;99.90
27306;DHT22;14792;50.886;6.468;2023-02-01T04:01:52;5.80;99.90
27306;DHT22;14792;50.886;6.468;2023-02-01T04:04:54;5.70;99.90
27306;DHT22;14792;50.886;6.468;2023-02-01T04:07:55;5.70;99.90
27306;DHT22;14792;50.886;6.468;2023-02-01T04:10:57;5.70;99.90
27306;DHT22;14792;50.886;6.468;2023-02-01T04:13:58;5.70;99.90
27306;DHT22;14792;50.886;6.468;2023-02-01T04:17:00;5.60;99.90
27306;DHT22;14792;50.886;6.468;2023-02-01T04:20:02;5.60;99.90
27306;DHT22;14792;50.886;6.468;2023-02-01T04:23:03;5.60;99.90
27306;DHT22;14792;50.886;6.468;2023-02-01T04:26:06;5.50;99.90
27306;DHT22;14792;50.886;6.468;2023-02-01T04:29:08;5.50;99.90
27306;DHT22;14792;50.886;6.468;2023-02-01T04:32:09;5.50;99.90
27306;DHT22;14792;50.886;6.468;2023-02-01T04:35:11;5.50;99.90
27306;DHT22;14792;50.886;6.468;2023-02-01T04:38:12;5.50;99.90
27306;DHT22;14792;50.886;6.468;2023-02-01T04:41:14;5.50;99.90
27306;DHT22;14792;50.886;6.468;2023-02-01T04:44:16;5.50;99.90
27306;DHT22;14792;50.886;6.468;2023-02-01T04:47:17;5.40;99.90
27306;DHT22;14792;50.886;6.468;2023-02-01T04:50:18;5.40;99.90
27306;DHT22;14792;50.886;6.468;2023-02-01T04:53:20;5.40;99.90
27306;DHT22;14792;50.886;6.468;2023-02-01T04:56:22;5.40;99.90
27306;DHT22;14792;50.886;6.468;2023-02-01T04:59:23;5.30;99.90
27306;DHT22;14792;50.886;6.468;2023-02-01T05:02:25;5.30;99.90
27306;DHT22;14792;50.886;6.468;2023-02-01T05:05:27;5.30;99.90
27306;DHT22;14792;50.886;6.468;2023-02-01T05:08:28;5.30;99.90
27306;DHT22;14792;50.886;6.468;2023-02-01T05:11:30;5.30;99.90
27306;DHT22;14792;50.886;6.468;2023-02-01T05:14:49;5.30;99.90
27306;DHT22;14792;50.886;6.468;2023-02-01T05:17:51;5.20;99.90
27306;DHT22;14792;50.886;6.468;2023-02-01T05:20:53;5.20;99.90
27306;DHT22;14792;50.886;6.468;2023-02-01T05:23:54;5.10;99.90
27306;DHT22;14792;50.886;6.468;2023-02-01T05:27:10;5.20;99.90
27306;DHT22;14792;50.886;6.468;2023-02-01T05:30:12;5.10;99.90
27306;DHT22;14792;50.886;6.468;2023-02-01T05:33:14;5.10;99.90
27306;DHT22;14792;50.886;6.468;2023-02-01T05:36:15;5.00;99.90
27306;DHT22;14792;50.886;6.468;2023-02-01T05:39:17;5.00;99.90
27306;DHT22;14792;50.886;6.468;2023-02-01T05:42:18;5.00;99.90
27306;DHT22;14792;50.886;6.468;2023-02-01T05:45:20;5.00;99.90
27306;DHT22;14792;50.886;6.468;2023-02-01T05:48:22;5.00;99.90
27306;DHT22;14792;50.886;6.468;2023-02-01T05:51:23;5.00;99.90
27306;DHT22;14792;50.886;6.468;2023-02-01T05:54:25;5.00;99.90
27306;DHT22;14792;50.886;6.468;2023-02-01T05:57:26;5.10;99.90
27306;DHT22;14792;50.886;6.468;2023-02-01T06:00:28;5.00;99.90
27306;DHT22;14792;50.886;6.468;2023-02-01T06:03:29;5.00;99.90
27306;DHT22;14792;50.886;6.468;2023-02-01T06:06:31;5.00;99.90
27306;DHT22;14792;50.886;6.468;2023-02-01T06:09:33;5.00;99.90
27306;DHT22;14792;50.886;6.468;2023-02-01T06:12:34;4.90;99.90
27306;DHT22;14792;50.886;6.468;2023-02-01T06:15:36;5.00;99.90
27306;DHT22;14792;50.886;6.468;2023-02-01T06:18:40;5.00;99.90
27306;DHT22;14792;50.886;6.468;2023-02-01T06:21:42;5.00;99.90
27306;DHT22;14792;50.886;6.468;2023-02-01T06:24:43;4.90;99.90
27306;DHT22;14792;50.886;6.468;2023-02-01T06:27:45;5.00;99.90
27306;DHT22;14792;50.886;6.468;2023-02-01T06:30:46;5.00;99.90
27306;DHT22;14792;50.886;6.468;2023-02-01T06:33:48;5.00;99.90
27306;DHT22;14792;50.886;6.468;2023-02-01T06:36:50;5.00;99.90
27306;DHT22;14792;50.886;6.468;2023-02-01T06:39:51;4.90;99.90
27306;DHT22;14792;50.886;6.468;2023-02-01T06:42:53;4.90;99.90
27306;DHT22;14792;50.886;6.468;2023-02-01T06:45:58;4.90;99.90
27306;DHT22;14792;50.886;6.468;2023-02-01T06:48:56;4.90;99.90
27306;DHT22;14792;50.886;6.468;2023-02-01T06:51:58;4.80;99.90
27306;DHT22;14792;50.886;6.468;2023-02-01T06:54:59;4.80;99.90
27306;DHT22;14792;50.886;6.468;2023-02-01T06:58:01;4.80;99.90
27306;DHT22;14792;50.886;6.468;2023-02-01T07:01:06;4.70;99.90
27306;DHT22;14792;50.886;6.468;2023-02-01T07:04:08;4.80;99.90
27306;DHT22;14792;50.886;6.468;2023-02-01T07:07:09;4.80;99.90
27306;DHT22;14792;50.886;6.468;2023-02-01T07:10:11;4.70;99.90
27306;DHT22;14792;50.886;6.468;2023-02-01T07:13:12;4.70;99.90
27306;DHT22;14792;50.886;6.468;2023-02-01T07:16:14;4.70;99.90
27306;DHT22;14792;50.886;6.468;2023-02-01T07:19:15;4.70;99.90
27306;DHT22;14792;50.886;6.468;2023-02-01T07:22:17;4.80;99.90
27306;DHT22;14792;50.886;6.468;2023-02-01T07:25:18;4.80;99.90
27306;DHT22;14792;50.886;6.468;2023-02-01T07:28:20;4.80;99.90
27306;DHT22;14792;50.886;6.468;2023-02-01T07:31:21;4.80;99.90
27306;DHT22;14792;50.886;6.468;2023-02-01T07:34:23;4.80;99.90
27306;DHT22;14792;50.886;6.468;2023-02-01T07:37:25;4.80;99.90
27306;DHT22;14792;50.886;6.468;2023-02-01T07:40:26;4.70;99.90
27306;DHT22;14792;50.886;6.468;2023-02-01T07:43:28;4.80;99.90
27306;DHT22;14792;50.886;6.468;2023-02-01T07:46:29;4.80;99.90
27306;DHT22;14792;50.886;6.468;2023-02-01T07:49:31;4.90;99.90
27306;DHT22;14792;50.886;6.468;2023-02-01T07:52:32;4.90;99.90
27306;DHT22;14792;50.886;6.468;2023-02-01T07:55:36;5.00;99.90
27306;DHT22;14792;50.886;6.468;2023-02-01T07:58:36;5.00;99.90
27306;DHT22;14792;50.886;6.468;2023-02-01T08:01:37;5.00;99.90
27306;DHT22;14792;50.886;6.468;2023-02-01T08:04:39;5.00;99.90
27306;DHT22;14792;50.886;6.468;2023-02-01T08:07:40;5.00;99.90
27306;DHT22;14792;50.886;6.468;2023-02-01T08:10:42;5.00;99.90
27306;DHT22;14792;50.886;6.468;2023-02-01T08:13:44;5.10;99.90
27306;DHT22;14792;50.886;6.468;2023-02-01T08:16:45;5.10;99.90
27306;DHT22;14792;50.886;6.468;2023-02-01T08:19:47;5.10;99.90
27306;DHT22;14792;50.886;6.468;2023-02-01T08:22:49;5.10;99.90
27306;DHT22;14792;50.886;6.468;2023-02-01T08:25:50;5.20;99.90
27306;DHT22;14792;50.886;6.468;2023-02-01T08:28:53;5.10;99.90
27306;DHT22;14792;50.886;6.468;2023-02-01T08:31:53;5.20;99.90
27306;DHT22;14792;50.886;6.468;2023-02-01T08:34:55;5.20;99.90
27306;DHT22;14792;50.886;6.468;2023-02-01T08:37:56;5.20;99.90
27306;DHT22;14792;50.886;6.468;2023-02-01T08:41:03;5.30;99.90
27306;DHT22;14792;50.886;6.468;2023-02-01T08:43:59;5.40;99.90
27306;DHT22;14792;50.886;6.468;2023-02-01T08:47:01;5.50;99.90
27306;DHT22;14792;50.886;6.468;2023-02-01T08:50:03;5.50;99.90
27306;DHT22;14792;50.886;6.468;2023-02-01T08:53:04;5.70;99.90
27306;DHT22;14792;50.886;6.468;2023-02-01T08:56:06;5.80;99.90
27306;DHT22;14792;50.886;6.468;2023-02-01T08:59:07;6.00;99.90
27306;DHT22;14792;50.886;6.468;2023-02-01T09:02:12;6.00;99.90
27306;DHT22;14792;50.886;6.468;2023-02-01T09:05:13;6.00;99.90
27306;DHT22;14792;50.886;6.468;2023-02-01T09:08:15;5.90;99.90
27306;DHT22;14792;50.886;6.468;2023-02-01T09:11:17;5.90;99.90
27306;DHT22;14792;50.886;6.468;2023-02-01T09:14:18;5.80;99.90
27306;DHT22;14792;50.886;6.468;2023-02-01T09:17:20;5.90;99.90
27306;DHT22;14792;50.886;6.468;2023-02-01T09:20:21;5.80;99.90
27306;DHT22;14792;50.886;6.468;2023-02-01T09:23:23;5.90;99.90
27306;DHT22;14792;50.886;6.468;2023-02-01T09:26:25;5.90;99.90
27306;DHT22;14792;50.886;6.468;2023-02-01T09:29:26;6.10;99.90
27306;DHT22;14792;50.886;6.468;2023-02-01T09:32:28;6.20;99.90
27306;DHT22;14792;50.886;6.468;2023-02-01T09:35:29;6.20;99.90
27306;DHT22;14792;50.886;6.468;2023-02-01T09:38:31;6.20;99.90
27306;DHT22;14792;50.886;6.468;2023-02-01T09:48:04;6.30;99.90
27306;DHT22;14792;50.886;6.468;2023-02-01T09:51:04;6.60;99.90
27306;DHT22;14792;50.886;6.468;2023-02-01T09:54:09;6.60;99.90
27306;DHT22;14792;50.886;6.468;2023-02-01T09:57:14;6.90;99.90
27306;DHT22;14792;50.886;6.468;2023-02-01T10:00:22;7.00;99.90
27306;DHT22;14792;50.886;6.468;2023-02-01T10:03:24;6.90;99.90
27306;DHT22;14792;50.886;6.468;2023-02-01T10:10:07;7.00;99.90
27306;DHT22;14792;50.886;6.468;2023-02-01T10:16:18;7.10;99.90
27306;DHT22;14792;50.886;6.468;2023-02-01T10:19:27;7.10;99.90
27306;DHT22;14792;50.886;6.468;2023-02-01T10:22:47;7.10;99.90
27306;DHT22;14792;50.886;6.468;2023-02-01T10:25:54;7.20;99.90
27306;DHT22;14792;50.886;6.468;2023-02-01T10:28:56;7.40;99.90
27306;DHT22;14792;50.886;6.468;2023-02-01T10:31:56;7.40;99.90
27306;DHT22;14792;50.886;6.468;2023-02-01T10:34:59;7.50;99.90
27306;DHT22;14792;50.886;6.468;2023-02-01T10:38:02;7.60;99.90
27306;DHT22;14792;50.886;6.468;2023-02-01T10:41:09;7.70;99.90
27306;DHT22;14792;50.886;6.468;2023-02-01T10:44:15;7.60;99.90
27306;DHT22;14792;50.886;6.468;2023-02-01T10:47:13;7.80;99.90
27306;DHT22;14792;50.886;6.468;2023-02-01T10:50:30;7.60;99.90
27306;DHT22;14792;50.886;6.468;2023-02-01T10:53:34;7.70;99.90
27306;DHT22;14792;50.886;6.468;2023-02-01T10:56:35;7.50;99.90
27306;DHT22;14792;50.886;6.468;2023-02-01T10:59:36;7.70;99.90
27306;DHT22;14792;50.886;6.468;2023-02-01T11:02:38;7.70;99.90
27306;DHT22;14792;50.886;6.468;2023-02-01T11:05:45;7.50;99.90
27306;DHT22;14792;50.886;6.468;2023-02-01T11:08:54;7.50;99.90
27306;DHT22;14792;50.886;6.468;2023-02-01T11:11:55;7.60;99.90
27306;DHT22;14792;50.886;6.468;2023-02-01T11:15:11;7.80;99.90
27306;DHT22;14792;50.886;6.468;2023-02-01T11:18:18;8.00;99.90
27306;DHT22;14792;50.886;6.468;2023-02-01T11:21:17;8.20;99.90
27306;DHT22;14792;50.886;6.468;2023-02-01T11:24:28;8.00;99.90
27306;DHT22;14792;50.886;6.468;2023-02-01T11:27:28;8.20;99.90
27306;DHT22;14792;50.886;6.468;2023-02-01T11:30:34;8.10;99.90
27306;DHT22;14792;50.886;6.468;2023-02-01T11:33:35;8.10;99.90
27306;DHT22;14792;50.886;6.468;2023-02-01T11:36:36;7.90;99.90
27306;DHT22;14792;50.886;6.468;2023-02-01T11:39:37;7.80;99.90
27306;DHT22;14792;50.886;6.468;2023-02-01T11:42:39;7.70;99.90
27306;DHT22;14792;50.886;6.468;2023-02-01T11:45:41;7.90;99.90
27306;DHT22;14792;50.886;6.468;2023-02-01T11:48:42;7.90;99.90
27306;DHT22;14792;50.886;6.468;2023-02-01T11:55:15;7.80;99.90
27306;DHT22;14792;50.886;6.468;2023-02-01T12:05:05;8.00;99.90
27306;DHT22;14792;50.886;6.468;2023-02-01T12:11:47;7.90;99.90
27306;DHT22;14792;50.886;6.468;2023-02-01T12:18:34;8.00;99.90
27306;DHT22;14792;50.886;6.468;2023-02-01T12:21:43;7.90;99.90
27306;DHT22;14792;50.886;6.468;2023-02-01T12:28:23;7.70;99.90
27306;DHT22;14792;50.886;6.468;2023-02-01T12:38:29;7.60;99.90
27306;DHT22;14792;50.886;6.468;2023-02-01T12:48:25;7.90;99.90
27306;DHT22;14792;50.886;6.468;2023-02-01T12:51:34;7.80;99.90
27306;DHT22;14792;50.886;6.468;2023-02-01T12:54:37;7.70;99.90
27306;DHT22;14792;50.886;6.468;2023-02-01T12:57:37;7.60;99.90
27306;DHT22;14792;50.886;6.468;2023-02-01T13:04:26;7.50;99.90
27306;DHT22;14792;50.886;6.468;2023-02-01T13:07:14;7.50;99.90
27306;DHT22;14792;50.886;6.468;2023-02-01T13:10:17;7.50;99.90
27306;DHT22;14792;50.886;6.468;2023-02-01T13:16:24;7.40;99.90
27306;DHT22;14792;50.886;6.468;2023-02-01T13:22:40;7.40;99.90
27306;DHT22;14792;50.886;6.468;2023-02-01T13:25:47;7.40;99.90
27306;DHT22;14792;50.886;6.468;2023-02-01T13:29:22;7.40;99.90
27306;DHT22;14792;50.886;6.468;2023-02-01T13:42:13;7.40;99.90
27306;DHT22;14792;50.886;6.468;2023-02-01T13:45:17;7.40;99.90
27306;DHT22;14792;50.886;6.468;2023-02-01T13:48:28;7.50;99.90
27306;DHT22;14792;50.886;6.468;2023-02-01T13:51:35;7.50;99.90
27306;DHT22;14792;50.886;6.468;2023-02-01T13:54:39;7.60;99.90
27306;DHT22;14792;50.886;6.468;2023-02-01T13:57:40;7.60;99.90
27306;DHT22;14792;50.886;6.468;2023-02-01T14:00:42;7.60;99.90
27306;DHT22;14792;50.886;6.468;2023-02-01T14:04:45;7.70;99.90
27306;DHT22;14792;50.886;6.468;2023-02-01T14:06:47;7.70;99.90
27306;DHT22;14792;50.886;6.468;2023-02-01T14:09:49;7.80;99.90
27306;DHT22;14792;50.886;6.468;2023-02-01T14:12:50;7.80;99.90
27306;DHT22;14792;50.886;6.468;2023-02-01T14:19:17;7.80;99.90
27306;DHT22;14792;50.886;6.468;2023-02-01T14:25:31;7.80;99.90
27306;DHT22;14792;50.886;6.468;2023-02-01T14:28:28;7.80;99.90
27306;DHT22;14792;50.886;6.468;2023-02-01T14:31:43;7.80;99.90
27306;DHT22;14792;50.886;6.468;2023-02-01T14:34:52;7.80;99.90
27306;DHT22;14792;50.886;6.468;2023-02-01T14:37:54;7.80;99.90
27306;DHT22;14792;50.886;6.468;2023-02-01T14:40:54;7.90;99.90
27306;DHT22;14792;50.886;6.468;2023-02-01T14:47:07;7.80;99.90
27306;DHT22;14792;50.886;6.468;2023-02-01T14:56:15;7.90;99.90
27306;DHT22;14792;50.886;6.468;2023-02-01T14:59:15;7.90;99.90
27306;DHT22;14792;50.886;6.468;2023-02-01T15:02:21;7.90;99.90
27306;DHT22;14792;50.886;6.468;2023-02-01T15:05:29;7.90;99.90
27306;DHT22;14792;50.886;6.468;2023-02-01T15:08:38;7.90;99.90
27306;DHT22;14792;50.886;6.468;2023-02-01T15:11:55;8.00;99.90
27306;DHT22;14792;50.886;6.468;2023-02-01T15:15:16;8.00;99.90
27306;DHT22;14792;50.886;6.468;2023-02-01T15:18:16;8.00;99.90
27306;DHT22;14792;50.886;6.468;2023-02-01T15:21:21;8.00;99.90
27306;DHT22;14792;50.886;6.468;2023-02-01T15:24:30;8.00;99.90
27306;DHT22;14792;50.886;6.468;2023-02-01T15:27:32;8.00;99.90
27306;DHT22;14792;50.886;6.468;2023-02-01T15:30:34;8.00;99.90
27306;DHT22;14792;50.886;6.468;2023-02-01T15:33:35;7.90;99.90
27306;DHT22;14792;50.886;6.468;2023-02-01T15:36:37;7.90;99.90
27306;DHT22;14792;50.886;6.468;2023-02-01T15:39:38;7.80;99.90
27306;DHT22;14792;50.886;6.468;2023-02-01T15:42:53;7.60;99.90
27306;DHT22;14792;50.886;6.468;2023-02-01T15:45:57;7.50;99.90
27306;DHT22;14792;50.886;6.468;2023-02-01T15:48:55;7.50;99.90
27306;DHT22;14792;50.886;6.468;2023-02-01T15:51:57;7.40;99.90
27306;DHT22;14792;50.886;6.468;2023-02-01T15:55:01;7.40;99.90
27306;DHT22;14792;50.886;6.468;2023-02-01T15:58:19;7.30;99.90
27306;DHT22;14792;50.886;6.468;2023-02-01T16:01:11;7.20;99.90
27306;DHT22;14792;50.886;6.468;2023-02-01T16:04:24;7.10;99.90
27306;DHT22;14792;50.886;6.468;2023-02-01T16:07:31;7.00;99.90
27306;DHT22;14792;50.886;6.468;2023-02-01T16:10:32;7.00;99.90
27306;DHT22;14792;50.886;6.468;2023-02-01T16:13:33;7.00;99.90
27306;DHT22;14792;50.886;6.468;2023-02-01T16:16:34;7.00;99.90
27306;DHT22;14792;50.886;6.468;2023-02-01T16:19:36;7.00;99.90
27306;DHT22;14792;50.886;6.468;2023-02-01T16:22:37;6.90;99.90
27306;DHT22;14792;50.886;6.468;2023-02-01T16:25:39;6.90;99.90
27306;DHT22;14792;50.886;6.468;2023-02-01T16:28:41;6.90;99.90
27306;DHT22;14792;50.886;6.468;2023-02-01T16:31:42;6.80;99.90
27306;DHT22;14792;50.886;6.468;2023-02-01T16:34:44;6.80;99.90
27306;DHT22;14792;50.886;6.468;2023-02-01T16:37:46;6.70;99.90
27306;DHT22;14792;50.886;6.468;2023-02-01T16:40:47;6.70;99.90
27306;DHT22;14792;50.886;6.468;2023-02-01T16:43:52;6.70;99.90
27306;DHT22;14792;50.886;6.468;2023-02-01T16:46:53;6.60;99.90
27306;DHT22;14792;50.886;6.468;2023-02-01T16:49:55;6.60;99.90
27306;DHT22;14792;50.886;6.468;2023-02-01T16:52:56;6.60;99.90
27306;DHT22;14792;50.886;6.468;2023-02-01T16:55:58;6.50;99.90
27306;DHT22;14792;50.886;6.468;2023-02-01T16:58:59;6.50;99.90
27306;DHT22;14792;50.886;6.468;2023-02-01T17:02:01;6.50;99.90
27306;DHT22;14792;50.886;6.468;2023-02-01T17:05:05;6.50;99.90
27306;DHT22;14792;50.886;6.468;2023-02-01T17:08:07;6.50;99.90
27306;DHT22;14792;50.886;6.468;2023-02-01T17:11:09;6.50;99.90
27306;DHT22;14792;50.886;6.468;2023-02-01T17:14:17;6.50;99.90
27306;DHT22;14792;50.886;6.468;2023-02-01T17:17:18;6.50;99.90
27306;DHT22;14792;50.886;6.468;2023-02-01T17:20:20;6.50;99.90
27306;DHT22;14792;50.886;6.468;2023-02-01T17:23:21;6.50;99.90
27306;DHT22;14792;50.886;6.468;2023-02-01T17:26:23;6.60;99.90
27306;DHT22;14792;50.886;6.468;2023-02-01T17:29:25;6.70;99.90
27306;DHT22;14792;50.886;6.468;2023-02-01T17:32:27;6.60;99.90
27306;DHT22;14792;50.886;6.468;2023-02-01T17:35:28;6.60;99.90
27306;DHT22;14792;50.886;6.468;2023-02-01T17:38:30;6.60;99.90
27306;DHT22;14792;50.886;6.468;2023-02-01T17:41:31;6.60;99.90
27306;DHT22;14792;50.886;6.468;2023-02-01T17:44:33;6.60;99.90
27306;DHT22;14792;50.886;6.468;2023-02-01T17:47:34;6.60;99.90
27306;DHT22;14792;50.886;6.468;2023-02-01T17:50:36;6.70;99.90
27306;DHT22;14792;50.886;6.468;2023-02-01T17:53:38;6.70;99.90
27306;DHT22;14792;50.886;6.468;2023-02-01T17:56:39;6.70;99.90
27306;DHT22;14792;50.886;6.468;2023-02-01T17:59:41;6.70;99.90
27306;DHT22;14792;50.886;6.468;2023-02-01T18:02:42;6.60;99.90
27306;DHT22;14792;50.886;6.468;2023-02-01T18:05:44;6.60;99.90
27306;DHT22;14792;50.886;6.468;2023-02-01T18:08:46;6.60;99.90
27306;DHT22;14792;50.886;6.468;2023-02-01T18:11:47;6.60;99.90
27306;DHT22;14792;50.886;6.468;2023-02-01T18:14:49;6.70;99.90
27306;DHT22;14792;50.886;6.468;2023-02-01T18:17:50;6.70;99.90
27306;DHT22;14792;50.886;6.468;2023-02-01T18:20:52;6.70;99.90
27306;DHT22;14792;50.886;6.468;2023-02-01T18:23:54;6.70;99.90
27306;DHT22;14792;50.886;6.468;2023-02-01T18:26:55;6.70;99.90
27306;DHT22;14792;50.886;6.468;2023-02-01T18:29:57;6.80;99.90
27306;DHT22;14792;50.886;6.468;2023-02-01T18:32:58;6.80;99.90
27306;DHT22;14792;50.886;6.468;2023-02-01T18:36:00;6.80;99.90
27306;DHT22;14792;50.886;6.468;2023-02-01T18:39:01;6.80;99.90
27306;DHT22;14792;50.886;6.468;2023-02-01T18:42:03;6.80;99.90
27306;DHT22;14792;50.886;6.468;2023-02-01T18:45:05;6.80;99.90
27306;DHT22;14792;50.886;6.468;2023-02-01T18:48:07;6.80;99.90
27306;DHT22;14792;50.886;6.468;2023-02-01T18:51:15;6.80;99.90
27306;DHT22;14792;50.886;6.468;2023-02-01T18:54:12;6.80;99.90
27306;DHT22;14792;50.886;6.468;2023-02-01T18:57:14;6.80;99.90
27306;DHT22;14792;50.886;6.468;2023-02-01T19:00:16;6.80;99.90
27306;DHT22;14792;50.886;6.468;2023-02-01T19:03:17;6.90;99.90
27306;DHT22;14792;50.886;6.468;2023-02-01T19:06:19;6.80;99.90
27306;DHT22;14792;50.886;6.468;2023-02-01T19:09:20;6.80;99.90
27306;DHT22;14792;50.886;6.468;2023-02-01T19:12:22;6.80;99.90
27306;DHT22;14792;50.886;6.468;2023-02-01T19:15:24;6.80;99.90
27306;DHT22;14792;50.886;6.468;2023-02-01T19:18:25;6.80;99.90
27306;DHT22;14792;50.886;6.468;2023-02-01T19:21:27;6.80;99.90
27306;DHT22;14792;50.886;6.468;2023-02-01T19:24:28;6.80;99.90
27306;DHT22;14792;50.886;6.468;2023-02-01T19:27:30;6.80;99.90
27306;DHT22;14792;50.886;6.468;2023-02-01T19:30:31;6.80;99.90
27306;DHT22;14792;50.886;6.468;2023-02-01T19:33:33;6.80;99.90
27306;DHT22;14792;50.886;6.468;2023-02-01T19:36:37;6.80;99.90
27306;DHT22;14792;50.886;6.468;2023-02-01T19:39:39;6.80;99.90
27306;DHT22;14792;50.886;6.468;2023-02-01T19:42:40;6.80;99.90
27306;DHT22;14792;50.886;6.468;2023-02-01T19:45:42;6.80;99.90
27306;DHT22;14792;50.886;6.468;2023-02-01T19:48:43;6.80;99.90
27306;DHT22;14792;50.886;6.468;2023-02-01T19:51:45;6.80;99.90
27306;DHT22;14792;50.886;6.468;2023-02-01T19:54:47;6.90;99.90
27306;DHT22;14792;50.886;6.468;2023-02-01T19:57:48;6.90;99.90
27306;DHT22;14792;50.886;6.468;2023-02-01T20:00:53;6.90;99.90
27306;DHT22;14792;50.886;6.468;2023-02-01T20:03:54;6.90;99.90
27306;DHT22;14792;50.886;6.468;2023-02-01T20:06:56;6.90;99.90
27306;DHT22;14792;50.886;6.468;2023-02-01T20:09:57;6.90;99.90
27306;DHT22;14792;50.886;6.468;2023-02-01T20:12:59;6.90;99.90
27306;DHT22;14792;50.886;6.468;2023-02-01T20:16:01;6.90;99.90
27306;DHT22;14792;50.886;6.468;2023-02-01T20:19:02;6.90;99.90
27306;DHT22;14792;50.886;6.468;2023-02-01T20:22:04;6.90;99.90
27306;DHT22;14792;50.886;6.468;2023-02-01T20:25:05;6.80;99.90
27306;DHT22;14792;50.886;6.468;2023-02-01T20:28:07;6.90;99.90
27306;DHT22;14792;50.886;6.468;2023-02-01T20:31:08;6.80;99.90
27306;DHT22;14792;50.886;6.468;2023-02-01T20:34:13;6.90;99.90
27306;DHT22;14792;50.886;6.468;2023-02-01T20:37:14;6.80;99.90
27306;DHT22;14792;50.886;6.468;2023-02-01T20:40:16;6.90;99.90
27306;DHT22;14792;50.886;6.468;2023-02-01T20:43:17;6.90;99.90
27306;DHT22;14792;50.886;6.468;2023-02-01T20:46:19;6.90;99.90
27306;DHT22;14792;50.886;6.468;2023-02-01T20:49:21;6.80;99.90
27306;DHT22;14792;50.886;6.468;2023-02-01T20:52:22;6.80;99.90
27306;DHT22;14792;50.886;6.468;2023-02-01T20:55:24;6.80;99.90
27306;DHT22;14792;50.886;6.468;2023-02-01T20:58:26;6.80;99.90
27306;DHT22;14792;50.886;6.468;2023-02-01T21:01:29;6.90;99.90
27306;DHT22;14792;50.886;6.468;2023-02-01T21:04:31;6.90;99.90
27306;DHT22;14792;50.886;6.468;2023-02-01T21:07:33;6.90;99.90
27306;DHT22;14792;50.886;6.468;2023-02-01T21:10:34;6.90;99.90
27306;DHT22;14792;50.886;6.468;2023-02-01T21:13:37;6.90;99.90
27306;DHT22;14792;50.886;6.468;2023-02-01T21:16:37;6.90;99.90
27306;DHT22;14792;50.886;6.468;2023-02-01T21:19:39;6.90;99.90